createdAt,value
2022-10-05T00:00:32.760Z,0.00
2022-10-05T00:01:32.812Z,0.00
2022-10-05T00:02:32.760Z,0.00
2022-10-05T00:03:32.756Z,0.00
2022-10-05T00:04:32.755Z,0.00
2022-10-05T00:05:32.811Z,0.00
2022-10-05T00:06:32.805Z,0.00
2022-10-05T00:07:32.754Z,0.00
2022-10-05T00:08:32.752Z,0.00
2022-10-05T00:09:32.806Z,0.00
2022-10-05T00:10:32.752Z,0.00
2022-10-05T00:11:32.755Z,0.00
2022-10-05T00:12:32.754Z,0.00
2022-10-05T00:13:32.756Z,0.00
2022-10-05T00:14:32.744Z,0.00
2022-10-05T00:15:32.747Z,0.00
2022-10-05T00:16:32.765Z,0.00
2022-10-05T00:17:32.747Z,0.00
2022-10-05T00:18:32.747Z,0.00
2022-10-05T00:19:32.747Z,0.00
2022-10-05T00:20:32.744Z,0.00
2022-10-05T00:21:32.743Z,0.00
2022-10-05T00:22:32.739Z,0.00
2022-10-05T00:23:32.756Z,0.00
2022-10-05T00:24:32.743Z,0.00
2022-10-05T00:25:32.760Z,0.00
2022-10-05T00:26:32.742Z,0.00
2022-10-05T00:27:32.740Z,0.00
2022-10-05T00:28:32.791Z,0.00
2022-10-05T00:29:32.737Z,0.00
2022-10-05T00:30:32.736Z,0.00
2022-10-05T00:31:32.901Z,0.00
2022-10-05T00:32:32.733Z,0.00
2022-10-05T00:33:32.736Z,0.00
2022-10-05T00:34:32.738Z,0.00
2022-10-05T00:35:32.732Z,0.00
2022-10-05T00:36:32.735Z,0.00
2022-10-05T00:37:32.734Z,0.00
2022-10-05T00:38:32.730Z,0.00
2022-10-05T00:39:32.732Z,0.00
2022-10-05T00:40:32.728Z,0.00
2022-10-05T00:41:32.749Z,0.00
2022-10-05T00:42:32.749Z,0.00
2022-10-05T00:43:32.726Z,0.00
2022-10-05T00:44:32.730Z,0.00
2022-10-05T00:45:32.756Z,0.00
2022-10-05T00:46:32.725Z,0.00
2022-10-05T00:47:32.724Z,0.00
2022-10-05T00:48:32.724Z,0.00
2022-10-05T00:49:32.724Z,0.00
2022-10-05T00:50:32.727Z,0.00
2022-10-05T00:51:32.721Z,0.00
2022-10-05T00:52:32.721Z,0.00
2022-10-05T00:53:32.716Z,0.00
2022-10-05T00:54:32.719Z,0.00
2022-10-05T00:55:32.718Z,0.00
2022-10-05T00:56:32.717Z,0.00
2022-10-05T00:57:32.802Z,0.00
2022-10-05T00:58:32.718Z,0.00
2022-10-05T00:59:32.712Z,0.00
2022-10-05T01:00:32.712Z,0.00
2022-10-05T01:01:32.814Z,0.00
2022-10-05T01:02:36.774Z,0.00
2022-10-05T01:03:32.715Z,0.00
2022-10-05T01:04:32.709Z,0.00
2022-10-05T01:05:32.711Z,0.00
2022-10-05T01:06:32.761Z,0.00
2022-10-05T01:07:32.708Z,0.00
2022-10-05T01:08:32.715Z,0.00
2022-10-05T01:09:32.708Z,0.00
2022-10-05T01:10:32.705Z,0.00
2022-10-05T01:11:32.705Z,0.00
2022-10-05T01:12:32.709Z,0.00
2022-10-05T01:13:32.769Z,0.00
2022-10-05T01:14:32.705Z,0.00
2022-10-05T01:15:32.700Z,0.00
2022-10-05T01:16:32.818Z,0.00
2022-10-05T01:17:32.701Z,0.00
2022-10-05T01:18:32.698Z,0.00
2022-10-05T01:19:32.699Z,0.00
2022-10-05T01:20:32.696Z,0.00
2022-10-05T01:21:32.702Z,0.00
2022-10-05T01:22:32.698Z,0.00
2022-10-05T01:23:32.698Z,0.00
2022-10-05T01:24:32.700Z,0.00
2022-10-05T01:25:32.695Z,0.00
2022-10-05T01:26:32.692Z,0.00
2022-10-05T01:27:32.694Z,0.00
2022-10-05T01:28:32.768Z,0.00
2022-10-05T01:29:32.714Z,0.00
2022-10-05T01:30:32.687Z,0.00
2022-10-05T01:31:32.788Z,0.00
2022-10-05T01:32:32.686Z,0.00
2022-10-05T01:33:32.686Z,0.00
2022-10-05T01:34:32.689Z,0.00
2022-10-05T01:35:32.685Z,0.00
2022-10-05T01:36:32.685Z,0.00
2022-10-05T01:37:32.683Z,0.00
2022-10-05T01:38:32.682Z,0.00
2022-10-05T01:39:32.685Z,0.00
2022-10-05T01:40:32.681Z,0.00
2022-10-05T01:41:32.679Z,0.00
2022-10-05T01:42:32.677Z,0.00
2022-10-05T01:43:32.685Z,0.00
2022-10-05T01:44:32.676Z,0.00
2022-10-05T01:45:32.776Z,0.00
2022-10-05T01:46:32.675Z,0.00
2022-10-05T01:47:32.674Z,0.00
2022-10-05T01:48:32.681Z,0.00
2022-10-05T01:49:32.671Z,0.00
2022-10-05T01:50:32.668Z,0.00
2022-10-05T01:51:32.675Z,0.00
2022-10-05T01:52:32.671Z,0.00
2022-10-05T01:53:32.670Z,0.00
2022-10-05T01:54:32.668Z,0.00
2022-10-05T01:55:32.673Z,0.00
2022-10-05T01:56:32.667Z,0.00
2022-10-05T01:57:32.667Z,0.00
2022-10-05T01:58:32.677Z,0.00
2022-10-05T01:59:32.666Z,0.00
2022-10-05T02:00:32.662Z,0.00
2022-10-05T02:01:32.833Z,0.00
2022-10-05T02:02:32.741Z,0.00
2022-10-05T02:03:32.663Z,0.00
2022-10-05T02:05:00.547Z,0.00
2022-10-05T02:05:32.659Z,0.00
2022-10-05T02:06:32.708Z,0.00
2022-10-05T02:07:32.657Z,0.00
2022-10-05T02:08:32.654Z,0.00
2022-10-05T02:09:32.657Z,0.00
2022-10-05T02:10:32.652Z,0.00
2022-10-05T02:11:32.651Z,0.00
2022-10-05T02:12:32.653Z,0.00
2022-10-05T02:13:32.655Z,0.00
2022-10-05T02:14:32.654Z,0.00
2022-10-05T02:15:32.710Z,0.00
2022-10-05T02:16:32.655Z,0.00
2022-10-05T02:17:32.665Z,0.00
2022-10-05T02:18:32.649Z,0.00
2022-10-05T02:19:32.653Z,0.00
2022-10-05T02:20:32.645Z,0.00
2022-10-05T02:21:32.649Z,0.00
2022-10-05T02:22:32.644Z,0.00
2022-10-05T02:23:32.644Z,0.00
2022-10-05T02:24:32.641Z,0.00
2022-10-05T02:25:32.638Z,0.00
2022-10-05T02:26:32.638Z,0.00
2022-10-05T02:27:32.643Z,0.00
2022-10-05T02:28:32.697Z,0.00
2022-10-05T02:29:32.638Z,0.00
2022-10-05T02:30:32.639Z,0.00
2022-10-05T02:31:32.710Z,0.00
2022-10-05T02:32:32.636Z,0.00
2022-10-05T02:33:32.686Z,0.00
2022-10-05T02:34:32.632Z,0.00
2022-10-05T02:35:32.632Z,0.00
2022-10-05T02:36:32.632Z,0.00
2022-10-05T02:37:32.627Z,0.00
2022-10-05T02:38:32.633Z,0.00
2022-10-05T02:39:32.626Z,0.00
2022-10-05T02:40:32.627Z,0.00
2022-10-05T02:41:32.628Z,0.00
2022-10-05T02:42:32.621Z,0.00
2022-10-05T02:43:32.626Z,0.00
2022-10-05T02:44:32.626Z,0.00
2022-10-05T02:45:32.706Z,0.00
2022-10-05T02:46:32.620Z,0.00
2022-10-05T02:47:32.619Z,0.00
2022-10-05T02:48:32.619Z,0.00
2022-10-05T02:49:32.634Z,0.00
2022-10-05T02:50:32.614Z,0.00
2022-10-05T02:51:32.619Z,0.00
2022-10-05T02:52:32.613Z,0.00
2022-10-05T02:53:32.611Z,0.00
2022-10-05T02:54:32.612Z,0.00
2022-10-05T02:55:32.612Z,0.00
2022-10-05T02:56:32.615Z,0.00
2022-10-05T02:57:32.616Z,0.00
2022-10-05T02:58:32.607Z,0.00
2022-10-05T02:59:32.606Z,0.00
2022-10-05T03:00:32.610Z,0.00
2022-10-05T03:01:32.650Z,0.00
2022-10-05T03:02:32.681Z,0.00
2022-10-05T03:03:32.604Z,0.00
2022-10-05T03:04:32.614Z,0.00
2022-10-05T03:05:32.625Z,0.00
2022-10-05T03:06:32.648Z,0.00
2022-10-05T03:07:32.597Z,0.00
2022-10-05T03:08:32.699Z,0.00
2022-10-05T03:09:32.598Z,0.00
2022-10-05T03:10:32.597Z,0.00
2022-10-05T03:11:32.595Z,0.00
2022-10-05T03:12:32.596Z,0.00
2022-10-05T03:13:32.591Z,0.00
2022-10-05T03:14:32.605Z,0.00
2022-10-05T03:15:32.590Z,0.00
2022-10-05T03:16:32.649Z,0.00
2022-10-05T03:17:32.584Z,0.00
2022-10-05T03:18:32.587Z,0.00
2022-10-05T03:19:32.585Z,0.00
2022-10-05T03:20:32.591Z,0.00
2022-10-05T03:21:32.609Z,0.00
2022-10-05T03:22:32.589Z,0.00
2022-10-05T03:23:32.582Z,0.00
2022-10-05T03:24:32.584Z,0.00
2022-10-05T03:25:32.578Z,0.00
2022-10-05T03:26:32.576Z,0.00
2022-10-05T03:27:32.577Z,0.00
2022-10-05T03:28:32.628Z,0.00
2022-10-05T03:29:32.575Z,0.00
2022-10-05T03:30:32.576Z,0.00
2022-10-05T03:31:32.656Z,0.00
2022-10-05T03:32:32.573Z,0.00
2022-10-05T03:33:32.574Z,0.00
2022-10-05T03:34:32.572Z,0.00
2022-10-05T03:35:32.568Z,0.00
2022-10-05T03:36:32.572Z,0.00
2022-10-05T03:37:32.676Z,0.00
2022-10-05T03:38:32.567Z,0.00
2022-10-05T03:39:32.565Z,0.00
2022-10-05T03:40:32.563Z,0.00
2022-10-05T03:41:32.561Z,0.00
2022-10-05T03:42:32.562Z,0.00
2022-10-05T03:43:32.575Z,0.00
2022-10-05T03:44:32.565Z,0.00
2022-10-05T03:45:32.555Z,0.00
2022-10-05T03:46:32.647Z,0.00
2022-10-05T03:47:32.551Z,0.00
2022-10-05T03:48:32.552Z,0.00
2022-10-05T03:49:32.550Z,0.00
2022-10-05T03:50:32.557Z,0.00
2022-10-05T03:51:32.552Z,0.00
2022-10-05T03:52:32.552Z,0.00
2022-10-05T03:53:32.573Z,0.00
2022-10-05T03:54:32.545Z,0.00
2022-10-05T03:55:32.546Z,0.00
2022-10-05T03:56:32.543Z,0.00
2022-10-05T03:57:32.542Z,0.00
2022-10-05T03:58:32.545Z,0.00
2022-10-05T03:59:32.956Z,0.00
2022-10-05T04:00:32.539Z,0.00
2022-10-05T04:01:32.615Z,0.00
2022-10-05T04:02:32.648Z,0.00
2022-10-05T04:03:32.536Z,0.00
2022-10-05T04:04:32.537Z,0.00
2022-10-05T04:05:32.534Z,0.00
2022-10-05T04:06:32.584Z,0.00
2022-10-05T04:07:32.529Z,0.00
2022-10-05T04:08:32.530Z,0.00
2022-10-05T04:09:32.564Z,0.00
2022-10-05T04:10:32.530Z,0.00
2022-10-05T04:11:32.522Z,0.00
2022-10-05T04:12:32.527Z,0.00
2022-10-05T04:13:32.529Z,0.00
2022-10-05T04:14:32.525Z,0.00
2022-10-05T04:15:32.623Z,0.00
2022-10-05T04:16:32.523Z,0.00
2022-10-05T04:17:32.522Z,0.00
2022-10-05T04:18:32.528Z,0.00
2022-10-05T04:19:32.519Z,0.00
2022-10-05T04:20:32.523Z,0.00
2022-10-05T04:21:32.515Z,0.00
2022-10-05T04:22:32.522Z,0.00
2022-10-05T04:23:32.514Z,0.00
2022-10-05T04:24:32.512Z,0.00
2022-10-05T04:25:32.532Z,0.00
2022-10-05T04:26:32.509Z,0.00
2022-10-05T04:27:32.518Z,0.00
2022-10-05T04:28:32.696Z,0.00
2022-10-05T04:29:32.508Z,0.00
2022-10-05T04:30:32.510Z,0.00
2022-10-05T04:31:32.645Z,0.00
2022-10-05T04:32:32.503Z,0.00
2022-10-05T04:33:32.506Z,0.00
2022-10-05T04:34:32.506Z,0.00
2022-10-05T04:35:32.501Z,0.00
2022-10-05T04:36:32.499Z,0.00
2022-10-05T04:37:32.499Z,0.00
2022-10-05T04:38:32.496Z,0.00
2022-10-05T04:39:32.499Z,0.00
2022-10-05T04:40:32.497Z,0.00
2022-10-05T04:41:32.633Z,0.00
2022-10-05T04:42:32.497Z,0.00
2022-10-05T04:43:32.494Z,4.00
2022-10-05T04:44:32.489Z,4.00
2022-10-05T04:45:32.492Z,0.00
2022-10-05T04:46:32.577Z,0.00
2022-10-05T04:47:32.489Z,0.00
2022-10-05T04:48:32.488Z,4.00
2022-10-05T04:49:32.489Z,4.00
2022-10-05T04:50:32.488Z,0.00
2022-10-05T04:51:32.480Z,4.00
2022-10-05T04:52:32.485Z,8.00
2022-10-05T04:53:32.484Z,4.00
2022-10-05T04:54:32.482Z,8.00
2022-10-05T04:55:32.480Z,8.00
2022-10-05T04:56:32.483Z,8.00
2022-10-05T04:57:32.502Z,8.00
2022-10-05T04:58:32.475Z,12.00
2022-10-05T04:59:32.474Z,16.00
2022-10-05T05:00:32.494Z,16.00
2022-10-05T05:01:32.474Z,20.00
2022-10-05T05:02:32.470Z,20.00
2022-10-05T05:03:32.496Z,24.00
2022-10-05T05:04:32.477Z,28.00
2022-10-05T05:05:32.469Z,32.00
2022-10-05T05:06:32.469Z,36.00
2022-10-05T05:07:32.466Z,40.00
2022-10-05T05:08:32.464Z,48.00
2022-10-05T05:09:32.469Z,48.00
2022-10-05T05:10:32.462Z,56.00
2022-10-05T05:11:32.467Z,64.00
2022-10-05T05:12:32.460Z,64.00
2022-10-05T05:13:32.480Z,72.00
2022-10-05T05:14:32.470Z,80.00
2022-10-05T05:15:32.458Z,92.00
2022-10-05T05:16:32.623Z,108.00
2022-10-05T05:17:32.455Z,132.00
2022-10-05T05:18:32.459Z,152.00
2022-10-05T05:19:32.453Z,176.00
2022-10-05T05:20:32.484Z,208.00
2022-10-05T05:21:32.454Z,240.00
2022-10-05T05:22:32.450Z,268.00
2022-10-05T05:23:32.448Z,288.00
2022-10-05T05:24:32.446Z,308.00
2022-10-05T05:25:32.450Z,324.00
2022-10-05T05:26:36.764Z,328.00
2022-10-05T05:27:32.444Z,332.00
2022-10-05T05:28:32.503Z,336.00
2022-10-05T05:29:32.461Z,344.00
2022-10-05T05:30:32.441Z,356.00
2022-10-05T05:31:32.539Z,372.00
2022-10-05T05:32:32.444Z,384.00
2022-10-05T05:33:32.445Z,400.00
2022-10-05T05:34:32.440Z,416.00
2022-10-05T05:35:32.434Z,432.00
2022-10-05T05:36:32.442Z,456.00
2022-10-05T05:37:32.435Z,480.00
2022-10-05T05:38:32.439Z,508.00
2022-10-05T05:39:32.437Z,544.00
2022-10-05T05:40:32.432Z,580.00
2022-10-05T05:41:32.433Z,612.00
2022-10-05T05:42:32.430Z,636.00
2022-10-05T05:43:32.431Z,664.00
2022-10-05T05:44:36.471Z,696.00
2022-10-05T05:45:32.448Z,736.00
2022-10-05T05:46:58.339Z,784.00
2022-10-05T05:47:32.486Z,832.00
2022-10-05T05:48:32.427Z,880.00
2022-10-05T05:49:32.423Z,924.00
2022-10-05T05:50:32.428Z,956.00
2022-10-05T05:51:32.420Z,964.00
2022-10-05T05:52:32.422Z,960.00
2022-10-05T05:53:32.419Z,940.00
2022-10-05T05:54:32.418Z,916.00
2022-10-05T05:55:32.415Z,904.00
2022-10-05T05:56:32.421Z,904.00
2022-10-05T05:57:32.414Z,924.00
2022-10-05T05:58:32.412Z,960.00
2022-10-05T05:59:32.416Z,1008.00
2022-10-05T06:00:32.411Z,1060.00
2022-10-05T06:01:33.893Z,1116.00
2022-10-05T06:02:32.552Z,1184.00
2022-10-05T06:03:32.406Z,1252.00
2022-10-05T06:04:32.407Z,1332.00
2022-10-05T06:05:32.411Z,1424.00
2022-10-05T06:06:32.407Z,1512.00
2022-10-05T06:07:32.402Z,1596.00
2022-10-05T06:08:32.403Z,1648.00
2022-10-05T06:09:32.403Z,1692.00
2022-10-05T06:10:32.408Z,1740.00
2022-10-05T06:11:32.402Z,1792.00
2022-10-05T06:12:32.411Z,1844.00
2022-10-05T06:13:32.404Z,1900.00
2022-10-05T06:14:32.407Z,1944.00
2022-10-05T06:15:32.420Z,1980.00
2022-10-05T06:16:32.472Z,2012.00
2022-10-05T06:17:32.440Z,2064.00
2022-10-05T06:18:32.397Z,2140.00
2022-10-05T06:19:32.394Z,2196.00
2022-10-05T06:20:32.394Z,2268.00
2022-10-05T06:21:32.389Z,2348.00
2022-10-05T06:22:32.392Z,2436.00
2022-10-05T06:23:32.385Z,2528.00
2022-10-05T06:24:32.390Z,2628.00
2022-10-05T06:25:32.388Z,2728.00
2022-10-05T06:26:32.386Z,2780.00
2022-10-05T06:27:32.393Z,2784.00
2022-10-05T06:28:32.520Z,2724.00
2022-10-05T06:29:32.386Z,2588.00
2022-10-05T06:30:32.385Z,2464.00
2022-10-05T06:31:32.475Z,2352.00
2022-10-05T06:32:32.380Z,2276.00
2022-10-05T06:33:32.406Z,2208.00
2022-10-05T06:34:32.381Z,2156.00
2022-10-05T06:35:32.375Z,2136.00
2022-10-05T06:36:32.382Z,2188.00
2022-10-05T06:37:32.376Z,2248.00
2022-10-05T06:38:32.382Z,2312.00
2022-10-05T06:39:32.378Z,2356.00
2022-10-05T06:40:32.375Z,2388.00
2022-10-05T06:41:32.373Z,2404.00
2022-10-05T06:42:32.379Z,2468.00
2022-10-05T06:43:32.368Z,2636.00
2022-10-05T06:44:32.375Z,2860.00
2022-10-05T06:45:32.412Z,3060.00
2022-10-05T06:46:32.375Z,3220.00
2022-10-05T06:47:32.366Z,3420.00
2022-10-05T06:48:32.370Z,3628.00
2022-10-05T06:49:32.393Z,3808.00
2022-10-05T06:50:32.365Z,3972.00
2022-10-05T06:51:32.364Z,4104.00
2022-10-05T06:52:32.366Z,4216.00
2022-10-05T06:53:32.365Z,4212.00
2022-10-05T06:54:32.363Z,4120.00
2022-10-05T06:55:32.366Z,4004.00
2022-10-05T06:56:32.354Z,3852.00
2022-10-05T06:57:32.363Z,3708.00
2022-10-05T06:58:32.362Z,3532.00
2022-10-05T06:59:32.365Z,3412.00
2022-10-05T07:00:32.359Z,3324.00
2022-10-05T07:01:32.451Z,3232.00
2022-10-05T07:02:32.388Z,3232.00
2022-10-05T07:03:32.356Z,3240.00
2022-10-05T07:04:36.809Z,3020.00
2022-10-05T07:05:32.463Z,3000.00
2022-10-05T07:06:32.354Z,3000.00
2022-10-05T07:07:32.354Z,3216.00
2022-10-05T07:08:32.355Z,3484.00
2022-10-05T07:09:32.356Z,3836.00
2022-10-05T07:10:32.360Z,4324.00
2022-10-05T07:11:32.400Z,4820.00
2022-10-05T07:12:32.351Z,5220.00
2022-10-05T07:13:32.349Z,5484.00
2022-10-05T07:14:32.347Z,5816.00
2022-10-05T07:15:32.351Z,5488.00
2022-10-05T07:16:32.394Z,5260.00
2022-10-05T07:17:32.348Z,4880.00
2022-10-05T07:18:32.350Z,4496.00
2022-10-05T07:19:32.345Z,4260.00
2022-10-05T07:20:32.348Z,4096.00
2022-10-05T07:21:32.411Z,4012.00
2022-10-05T07:22:34.188Z,3928.00
2022-10-05T07:23:32.345Z,4028.00
2022-10-05T07:24:32.343Z,4444.00
2022-10-05T07:25:32.344Z,6080.00
2022-10-05T07:26:32.339Z,6664.00
2022-10-05T07:27:32.338Z,5332.00
2022-10-05T07:28:32.469Z,5608.00
2022-10-05T07:29:32.341Z,4856.00
2022-10-05T07:30:32.376Z,4988.00
2022-10-05T07:31:32.338Z,5180.00
2022-10-05T07:32:32.341Z,5376.00
2022-10-05T07:33:32.341Z,5436.00
2022-10-05T07:34:32.347Z,5380.00
2022-10-05T07:35:32.336Z,5272.00
2022-10-05T07:36:32.337Z,5180.00
2022-10-05T07:37:32.362Z,5140.00
2022-10-05T07:38:32.332Z,5108.00
2022-10-05T07:39:55.280Z,5104.00
2022-10-05T07:40:32.337Z,5268.00
2022-10-05T07:41:32.332Z,5592.00
2022-10-05T07:42:32.333Z,6024.00
2022-10-05T07:43:51.465Z,6592.00
2022-10-05T07:44:32.337Z,6860.00
2022-10-05T07:45:32.418Z,8128.00
2022-10-05T07:46:32.336Z,9148.00
2022-10-05T07:47:32.331Z,8840.00
2022-10-05T07:48:32.327Z,10076.00
2022-10-05T07:49:32.333Z,10244.00
2022-10-05T07:50:32.330Z,10696.00
2022-10-05T07:51:32.338Z,11520.00
2022-10-05T07:52:34.776Z,9932.00
2022-10-05T07:53:32.357Z,9592.00
2022-10-05T07:54:32.328Z,9372.00
2022-10-05T07:55:32.331Z,9204.00
2022-10-05T07:56:32.325Z,9160.00
2022-10-05T07:57:32.330Z,9256.00
2022-10-05T07:58:32.324Z,9040.00
2022-10-05T07:59:32.328Z,8860.00
2022-10-05T08:00:32.330Z,9016.00
2022-10-05T08:01:32.391Z,7212.00
2022-10-05T08:02:32.561Z,6812.00
2022-10-05T08:03:32.329Z,6740.00
2022-10-05T08:04:32.327Z,7296.00
2022-10-05T08:05:32.328Z,7296.00
2022-10-05T08:06:32.328Z,7332.00
2022-10-05T08:07:32.328Z,7648.00
2022-10-05T08:08:32.326Z,8176.00
2022-10-05T08:09:32.348Z,8732.00
2022-10-05T08:10:32.323Z,9380.00
2022-10-05T08:11:32.329Z,10040.00
2022-10-05T08:12:32.324Z,10716.00
2022-10-05T08:13:32.327Z,11400.00
2022-10-05T08:14:32.325Z,11708.00
2022-10-05T08:15:32.333Z,11596.00
2022-10-05T08:16:32.372Z,11340.00
2022-10-05T08:17:32.327Z,11064.00
2022-10-05T08:18:32.329Z,11268.00
2022-10-05T08:19:32.324Z,10392.00
2022-10-05T08:20:32.328Z,13540.00
2022-10-05T08:21:32.329Z,8872.00
2022-10-05T08:22:32.328Z,7912.00
2022-10-05T08:23:32.328Z,7472.00
2022-10-05T08:24:32.324Z,7216.00
2022-10-05T08:25:32.347Z,6980.00
2022-10-05T08:26:32.326Z,7016.00
2022-10-05T08:27:32.330Z,7272.00
2022-10-05T08:28:32.401Z,7636.00
2022-10-05T08:29:32.329Z,8116.00
2022-10-05T08:30:32.325Z,8612.00
2022-10-05T08:31:32.377Z,9028.00
2022-10-05T08:32:32.325Z,9480.00
2022-10-05T08:33:32.326Z,9900.00
2022-10-05T08:34:32.328Z,10176.00
2022-10-05T08:35:32.323Z,10224.00
2022-10-05T08:36:32.326Z,10116.00
2022-10-05T08:37:32.322Z,9912.00
2022-10-05T08:38:32.332Z,9768.00
2022-10-05T08:39:32.331Z,9384.00
2022-10-05T08:40:32.329Z,9248.00
2022-10-05T08:41:32.403Z,8948.00
2022-10-05T08:42:32.325Z,8788.00
2022-10-05T08:43:35.320Z,9192.00
2022-10-05T08:44:32.330Z,9456.00
2022-10-05T08:45:32.331Z,9480.00
2022-10-05T08:46:32.384Z,9364.00
2022-10-05T08:47:32.328Z,9308.00
2022-10-05T08:48:32.325Z,9316.00
2022-10-05T08:49:35.155Z,9764.00
2022-10-05T08:50:32.326Z,9768.00
2022-10-05T08:51:32.336Z,9852.00
2022-10-05T08:52:32.327Z,8688.00
2022-10-05T08:53:32.328Z,8712.00
2022-10-05T08:54:32.324Z,8984.00
2022-10-05T08:55:32.331Z,9592.00
2022-10-05T08:56:32.331Z,13736.00
2022-10-05T08:57:32.463Z,11152.00
2022-10-05T08:58:32.326Z,11308.00
2022-10-05T08:59:32.327Z,11536.00
2022-10-05T09:00:32.325Z,11340.00
2022-10-05T09:01:32.413Z,11088.00
2022-10-05T09:02:32.405Z,10616.00
2022-10-05T09:03:34.550Z,10428.00
2022-10-05T09:04:32.327Z,10196.00
2022-10-05T09:05:32.332Z,10244.00
2022-10-05T09:06:32.328Z,10360.00
2022-10-05T09:07:35.127Z,11588.00
2022-10-05T09:08:32.340Z,11764.00
2022-10-05T09:09:32.336Z,11440.00
2022-10-05T09:10:32.330Z,11572.00
2022-10-05T09:11:32.330Z,11652.00
2022-10-05T09:12:32.330Z,11964.00
2022-10-05T09:13:32.353Z,12024.00
2022-10-05T09:14:32.330Z,11732.00
2022-10-05T09:15:32.390Z,11736.00
2022-10-05T09:16:32.338Z,11768.00
2022-10-05T09:17:35.866Z,11684.00
2022-10-05T09:18:32.344Z,11436.00
2022-10-05T09:19:32.334Z,11164.00
2022-10-05T09:20:32.337Z,10668.00
2022-10-05T09:21:32.340Z,10176.00
2022-10-05T09:22:32.337Z,9776.00
2022-10-05T09:23:32.337Z,9596.00
2022-10-05T09:24:32.340Z,9452.00
2022-10-05T09:25:32.340Z,9564.00
2022-10-05T09:26:32.336Z,9392.00
2022-10-05T09:27:32.338Z,9284.00
2022-10-05T09:28:32.496Z,9248.00
2022-10-05T09:29:32.390Z,9248.00
2022-10-05T09:30:32.337Z,9212.00
2022-10-05T09:31:32.399Z,9164.00
2022-10-05T09:32:32.343Z,8960.00
2022-10-05T09:33:32.349Z,8664.00
2022-10-05T09:34:32.342Z,8292.00
2022-10-05T09:35:32.341Z,7856.00
2022-10-05T09:36:32.341Z,7464.00
2022-10-05T09:37:32.345Z,7120.00
2022-10-05T09:38:32.344Z,6880.00
2022-10-05T09:39:32.346Z,6844.00
2022-10-05T09:40:32.342Z,6876.00
2022-10-05T09:41:32.353Z,7036.00
2022-10-05T09:42:32.344Z,7040.00
2022-10-05T09:43:32.348Z,7004.00
2022-10-05T09:44:32.344Z,7012.00
2022-10-05T09:45:32.472Z,7000.00
2022-10-05T09:46:32.390Z,7012.00
2022-10-05T09:47:32.350Z,6988.00
2022-10-05T09:48:32.350Z,7020.00
2022-10-05T09:49:32.351Z,7104.00
2022-10-05T09:50:32.350Z,7024.00
2022-10-05T09:51:32.354Z,6972.00
2022-10-05T09:52:32.359Z,6872.00
2022-10-05T09:53:32.352Z,6892.00
2022-10-05T09:54:32.353Z,7024.00
2022-10-05T09:55:32.358Z,7264.00
2022-10-05T09:56:32.361Z,7624.00
2022-10-05T09:57:32.355Z,8092.00
2022-10-05T09:58:32.356Z,8592.00
2022-10-05T09:59:32.359Z,9088.00
2022-10-05T10:00:32.356Z,9588.00
2022-10-05T10:01:34.020Z,10072.00
2022-10-05T10:02:32.514Z,10508.00
2022-10-05T10:03:32.440Z,10760.00
2022-10-05T10:04:32.357Z,10928.00
2022-10-05T10:05:32.360Z,11032.00
2022-10-05T10:06:32.364Z,11100.00
2022-10-05T10:07:32.359Z,11096.00
2022-10-05T10:08:32.357Z,10784.00
2022-10-05T10:09:35.315Z,10756.00
2022-10-05T10:10:32.360Z,10800.00
2022-10-05T10:11:32.361Z,10768.00
2022-10-05T10:12:32.365Z,10620.00
2022-10-05T10:13:32.361Z,10536.00
2022-10-05T10:14:32.362Z,10416.00
2022-10-05T10:15:32.406Z,10232.00
2022-10-05T10:16:32.365Z,10168.00
2022-10-05T10:17:32.393Z,10188.00
2022-10-05T10:18:32.369Z,10292.00
2022-10-05T10:19:32.365Z,10476.00
2022-10-05T10:20:32.375Z,10844.00
2022-10-05T10:21:32.374Z,11328.00
2022-10-05T10:22:32.375Z,11664.00
2022-10-05T10:23:32.372Z,11804.00
2022-10-05T10:24:32.371Z,11840.00
2022-10-05T10:25:32.373Z,11984.00
2022-10-05T10:26:32.373Z,12108.00
2022-10-05T10:27:32.369Z,12164.00
2022-10-05T10:28:32.524Z,12168.00
2022-10-05T10:29:32.378Z,12064.00
2022-10-05T10:30:34.435Z,11956.00
2022-10-05T10:31:32.386Z,11792.00
2022-10-05T10:32:32.373Z,11684.00
2022-10-05T10:33:32.399Z,11668.00
2022-10-05T10:34:32.376Z,11716.00
2022-10-05T10:35:32.381Z,11852.00
2022-10-05T10:36:32.380Z,11928.00
2022-10-05T10:37:32.376Z,12220.00
2022-10-05T10:38:32.381Z,12404.00
2022-10-05T10:39:32.376Z,12312.00
2022-10-05T10:40:32.377Z,12088.00
2022-10-05T10:41:32.384Z,11660.00
2022-10-05T10:42:32.385Z,11052.00
2022-10-05T10:43:32.390Z,10660.00
2022-10-05T10:44:32.384Z,10296.00
2022-10-05T10:45:32.388Z,10020.00
2022-10-05T10:46:32.429Z,9952.00
2022-10-05T10:47:32.388Z,10060.00
2022-10-05T10:48:32.389Z,10552.00
2022-10-05T10:49:32.534Z,11348.00
2022-10-05T10:50:32.391Z,11848.00
2022-10-05T10:51:32.391Z,12476.00
2022-10-05T10:52:32.413Z,12584.00
2022-10-05T10:53:32.392Z,12684.00
2022-10-05T10:54:32.401Z,12620.00
2022-10-05T10:55:32.398Z,12548.00
2022-10-05T10:56:32.402Z,12876.00
2022-10-05T10:57:32.399Z,12804.00
2022-10-05T10:58:32.400Z,12064.00
2022-10-05T10:59:32.401Z,11880.00
2022-10-05T11:00:32.401Z,11796.00
2022-10-05T11:01:32.484Z,11768.00
2022-10-05T11:02:32.435Z,10796.00
2022-10-05T11:03:32.404Z,11216.00
2022-10-05T11:04:32.404Z,11180.00
2022-10-05T11:05:32.484Z,11228.00
2022-10-05T11:06:32.406Z,11060.00
2022-10-05T11:07:32.405Z,13920.00
2022-10-05T11:08:32.410Z,16608.00
2022-10-05T11:09:32.408Z,20288.00
2022-10-05T11:10:32.412Z,16576.00
2022-10-05T11:11:32.411Z,18944.00
2022-10-05T11:12:34.681Z,10204.00
2022-10-05T11:13:32.413Z,14212.00
2022-10-05T11:14:32.505Z,12936.00
2022-10-05T11:15:32.560Z,10284.00
2022-10-05T11:16:32.429Z,11624.00
2022-10-05T11:17:32.419Z,17024.00
2022-10-05T11:18:32.422Z,15728.00
2022-10-05T11:19:40.294Z,11024.00
2022-10-05T11:20:32.427Z,11816.00
2022-10-05T11:21:32.448Z,11384.00
2022-10-05T11:22:32.425Z,17664.00
2022-10-05T11:23:37.925Z,16672.00
2022-10-05T11:24:32.434Z,14560.00
2022-10-05T11:25:32.437Z,13908.00
2022-10-05T11:26:32.435Z,13480.00
2022-10-05T11:27:32.435Z,13148.00
2022-10-05T11:28:32.536Z,12956.00
2022-10-05T11:29:32.445Z,12560.00
2022-10-05T11:30:32.448Z,12248.00
2022-10-05T11:31:32.532Z,11824.00
2022-10-05T11:32:32.444Z,10940.00
2022-10-05T11:33:32.451Z,10992.00
2022-10-05T11:34:32.447Z,11060.00
2022-10-05T11:35:32.449Z,11444.00
2022-10-05T11:36:32.465Z,12824.00
2022-10-05T11:37:32.499Z,11596.00
2022-10-05T11:38:32.455Z,12488.00
2022-10-05T11:39:32.456Z,12536.00
2022-10-05T11:40:32.463Z,9880.00
2022-10-05T11:41:32.461Z,9716.00
2022-10-05T11:42:32.470Z,11772.00
2022-10-05T11:43:32.467Z,14844.00
2022-10-05T11:44:32.478Z,15592.00
2022-10-05T11:45:32.477Z,14304.00
2022-10-05T11:46:32.543Z,13556.00
2022-10-05T11:47:32.478Z,14356.00
2022-10-05T11:48:32.487Z,15088.00
2022-10-05T11:49:32.481Z,17344.00
2022-10-05T11:50:32.492Z,14984.00
2022-10-05T11:51:32.486Z,14888.00
2022-10-05T11:52:32.496Z,14188.00
2022-10-05T11:53:32.510Z,16008.00
2022-10-05T11:54:46.577Z,15292.00
2022-10-05T11:55:32.506Z,12084.00
2022-10-05T11:56:32.507Z,11204.00
2022-10-05T11:57:32.519Z,10988.00
2022-10-05T11:58:32.516Z,11168.00
2022-10-05T11:59:32.516Z,10292.00
2022-10-05T12:00:32.518Z,10008.00
2022-10-05T12:01:32.521Z,10344.00
2022-10-05T12:02:32.603Z,11944.00
2022-10-05T12:03:32.640Z,11496.00
2022-10-05T12:04:32.530Z,9756.00
2022-10-05T12:05:32.531Z,9152.00
2022-10-05T12:06:32.529Z,9104.00
2022-10-05T12:07:32.540Z,8928.00
2022-10-05T12:08:32.541Z,8792.00
2022-10-05T12:09:32.561Z,8552.00
2022-10-05T12:10:32.549Z,8196.00
2022-10-05T12:11:32.546Z,7792.00
2022-10-05T12:12:32.550Z,7436.00
2022-10-05T12:13:32.554Z,7264.00
2022-10-05T12:14:32.556Z,7260.00
2022-10-05T12:15:32.562Z,7360.00
2022-10-05T12:16:32.567Z,7468.00
2022-10-05T12:17:32.574Z,7620.00
2022-10-05T12:18:32.593Z,7652.00
2022-10-05T12:19:32.577Z,7580.00
2022-10-05T12:20:32.577Z,7496.00
2022-10-05T12:21:32.580Z,7280.00
2022-10-05T12:22:32.654Z,7068.00
2022-10-05T12:23:32.584Z,6856.00
2022-10-05T12:24:32.586Z,6468.00
2022-10-05T12:25:32.618Z,6564.00
2022-10-05T12:26:32.595Z,6764.00
2022-10-05T12:27:32.599Z,6768.00
2022-10-05T12:28:32.655Z,6020.00
2022-10-05T12:29:32.603Z,5724.00
2022-10-05T12:30:32.610Z,5564.00